Middle Creek, Pennsylvania
Current Conditions -  °F | °C
As of 6:53 PM on Sunday 23 Nov 2014 (Local Time) from KSEG Reporting Station
Clear Clear  
Wind Chill: 48°   Ceiling: Unl
Heat Index: 48°   Visibility: 10mi
Dew Point: 28°   Wind: 0mph
Humidity: 46%   Direction: NA
Pressure: 30.01"   Gusts: NA
Location:  40.817°N, 76.9715°W
Report Text: KSEG 232353Z AUTO 00000KT 10SM CLR 09/M02 A3001 RMK AO2 SLP164 T00891022 10144 20061 58010 $
Loading
Personal Weather Stations






























Interactive Weather Map New forecast layout! Learn more

10-Day Weather Forecast

Advertisements
Track Severe Weather on mobile